createdAt,value
2018-12-17T00:00:37.129Z,6.76
2018-12-17T00:03:09.961Z,6.72
2018-12-17T00:05:42.821Z,6.61
2018-12-17T00:08:18.012Z,6.60
2018-12-17T00:10:48.892Z,6.48
2018-12-17T00:13:19.943Z,6.63
2018-12-17T00:15:50.640Z,6.62
2018-12-17T00:18:28.365Z,6.69
2018-12-17T00:21:04.854Z,6.66
2018-12-17T00:23:39.445Z,6.54
2018-12-17T00:26:16.129Z,6.52
2018-12-17T00:28:50.807Z,6.53
2018-12-17T00:31:25.811Z,6.57
2018-12-17T00:34:08.633Z,6.56
2018-12-17T00:36:50.339Z,6.59
2018-12-17T00:39:29.002Z,6.46
2018-12-17T00:42:10.538Z,6.30
2018-12-17T00:44:48.643Z,6.18
2018-12-17T00:47:33.636Z,6.26
2018-12-17T00:50:15.167Z,6.22
2018-12-17T00:52:52.648Z,6.18
2018-12-17T00:55:32.049Z,6.06
2018-12-17T00:58:06.200Z,6.08
2018-12-17T01:00:36.877Z,6.02
2018-12-17T01:03:08.000Z,6.01
2018-12-17T01:05:38.694Z,6.02
2018-12-17T01:08:09.485Z,5.90
2018-12-17T01:10:40.194Z,5.92
2018-12-17T01:13:11.100Z,5.86
2018-12-17T01:15:41.707Z,5.83
2018-12-17T01:18:12.907Z,5.89
2018-12-17T01:20:43.662Z,5.90
2018-12-17T01:23:14.314Z,5.83
2018-12-17T01:25:44.969Z,5.76
2018-12-17T01:28:21.984Z,5.76
2018-12-17T01:30:48.407Z,5.65
2018-12-17T01:33:19.044Z,5.68
2018-12-17T01:35:49.786Z,5.69
2018-12-17T01:38:20.415Z,5.70
2018-12-17T01:40:51.122Z,5.62
2018-12-17T01:43:21.775Z,5.64
2018-12-17T01:45:52.472Z,5.56
2018-12-17T01:48:24.435Z,5.55
2018-12-17T01:50:55.191Z,5.59
2018-12-17T01:53:25.981Z,5.66
2018-12-17T01:55:56.739Z,5.64
2018-12-17T01:58:29.365Z,5.63
2018-12-17T02:01:00.094Z,5.58
2018-12-17T02:03:35.254Z,5.73
2018-12-17T02:06:05.899Z,5.89
2018-12-17T02:08:36.840Z,5.91
2018-12-17T02:11:11.484Z,5.92
2018-12-17T02:13:49.021Z,5.99
2018-12-17T02:16:21.248Z,5.92
2018-12-17T02:18:52.542Z,5.95
2018-12-17T02:21:26.141Z,5.86
2018-12-17T02:23:56.780Z,5.93
2018-12-17T02:26:28.255Z,5.91
2018-12-17T02:28:59.611Z,5.96
2018-12-17T02:31:30.299Z,5.80
2018-12-17T02:34:01.005Z,5.82
2018-12-17T02:36:33.655Z,5.90
2018-12-17T02:39:09.461Z,5.92
2018-12-17T02:41:41.778Z,5.81
2018-12-17T02:44:12.794Z,5.93
2018-12-17T02:46:44.142Z,5.94
2018-12-17T02:49:15.303Z,5.87
2018-12-17T02:51:45.984Z,5.78
2018-12-17T02:54:16.735Z,5.77
2018-12-17T02:56:47.343Z,5.76
2018-12-17T02:59:18.009Z,5.76
2018-12-17T03:01:49.427Z,5.91
2018-12-17T03:04:20.824Z,5.97
2018-12-17T03:06:51.528Z,6.00
2018-12-17T03:09:23.916Z,6.20
2018-12-17T03:11:54.543Z,6.16
2018-12-17T03:14:25.192Z,6.18
2018-12-17T03:16:55.908Z,6.30
2018-12-17T03:19:26.630Z,6.30
2018-12-17T03:21:57.259Z,6.34
2018-12-17T03:24:27.932Z,6.29
2018-12-17T03:26:58.563Z,6.28
2018-12-17T03:29:29.800Z,6.38
2018-12-17T03:32:00.698Z,6.27
2018-12-17T03:34:32.746Z,6.29
2018-12-17T03:37:05.506Z,6.37
2018-12-17T03:39:36.562Z,6.31
2018-12-17T03:42:07.342Z,6.33
2018-12-17T03:44:38.414Z,6.38
2018-12-17T03:47:15.615Z,6.45
2018-12-17T03:49:46.759Z,6.46
2018-12-17T03:52:17.481Z,6.53
2018-12-17T03:54:48.202Z,6.54
2018-12-17T03:57:18.861Z,6.57
2018-12-17T03:59:49.529Z,6.55
2018-12-17T04:02:20.226Z,6.69
2018-12-17T04:04:50.846Z,6.71
2018-12-17T04:07:21.591Z,6.79
2018-12-17T04:09:52.493Z,6.79
2018-12-17T04:12:25.021Z,6.83
2018-12-17T04:14:55.690Z,6.84
2018-12-17T04:17:26.499Z,6.81
2018-12-17T04:19:57.162Z,6.81
2018-12-17T04:22:27.842Z,6.89
2018-12-17T04:24:59.599Z,6.83
2018-12-17T04:27:30.284Z,6.83
2018-12-17T04:30:06.397Z,6.84
2018-12-17T04:32:37.164Z,6.93
2018-12-17T04:35:08.112Z,7.00
2018-12-17T04:37:39.142Z,7.02
2018-12-17T04:40:11.328Z,7.07
2018-12-17T04:42:42.561Z,7.09
2018-12-17T04:45:13.294Z,7.00
2018-12-17T04:47:43.997Z,6.91
2018-12-17T04:50:14.675Z,6.84
2018-12-17T04:52:45.261Z,6.93
2018-12-17T04:55:15.985Z,6.95
2018-12-17T04:57:47.811Z,6.92
2018-12-17T05:00:18.678Z,6.98
2018-12-17T05:02:49.351Z,6.93
2018-12-17T05:05:20.661Z,6.85
2018-12-17T05:07:51.429Z,6.81
2018-12-17T05:10:22.704Z,6.71
2018-12-17T05:12:53.390Z,6.70
2018-12-17T05:15:24.474Z,6.70
2018-12-17T05:18:03.316Z,6.64
2018-12-17T05:20:34.015Z,6.63
2018-12-17T05:23:06.203Z,6.58
2018-12-17T05:25:37.187Z,6.53
2018-12-17T05:28:09.110Z,6.50
2018-12-17T05:30:39.888Z,6.47
2018-12-17T05:33:10.768Z,6.46
2018-12-17T05:35:41.417Z,6.49
2018-12-17T05:38:12.246Z,6.51
2018-12-17T05:40:43.072Z,6.53
2018-12-17T05:43:13.701Z,6.45
2018-12-17T05:45:44.807Z,6.51
2018-12-17T05:48:15.543Z,6.36
2018-12-17T05:50:46.217Z,6.24
2018-12-17T05:53:16.977Z,6.24
2018-12-17T05:55:48.223Z,6.14
2018-12-17T05:58:18.855Z,6.14
2018-12-17T06:00:49.516Z,6.17
2018-12-17T06:03:20.153Z,6.20
2018-12-17T06:05:50.839Z,6.26
2018-12-17T06:08:21.502Z,6.22
2018-12-17T06:10:52.170Z,6.25
2018-12-17T06:13:22.833Z,6.23
2018-12-17T06:15:53.550Z,6.25
2018-12-17T06:18:24.259Z,6.28
2018-12-17T06:20:55.237Z,6.32
2018-12-17T06:23:25.931Z,6.29
2018-12-17T06:25:56.569Z,6.35
2018-12-17T06:28:27.896Z,6.24
2018-12-17T06:30:58.609Z,6.20
2018-12-17T06:33:29.321Z,6.14
2018-12-17T06:36:03.556Z,6.08
2018-12-17T06:38:34.536Z,6.06
2018-12-17T06:41:06.335Z,6.04
2018-12-17T06:43:37.831Z,6.03
2018-12-17T06:46:09.418Z,6.00
2018-12-17T06:48:40.913Z,6.04
2018-12-17T06:51:11.726Z,5.97
2018-12-17T06:53:42.575Z,5.93
2018-12-17T06:56:13.507Z,5.88
2018-12-17T06:58:44.135Z,5.91
2018-12-17T07:01:15.684Z,5.96
2018-12-17T07:03:46.370Z,5.97
2018-12-17T07:06:18.585Z,5.96
2018-12-17T07:08:50.700Z,6.05
2018-12-17T07:11:21.709Z,6.05
2018-12-17T07:13:52.451Z,6.00
2018-12-17T07:16:23.082Z,5.96
2018-12-17T07:18:53.994Z,6.01
2018-12-17T07:21:24.639Z,6.01
2018-12-17T07:23:58.892Z,5.96
2018-12-17T07:26:29.089Z,5.93
2018-12-17T07:28:59.738Z,5.85
2018-12-17T07:31:30.843Z,5.75
2018-12-17T07:34:01.924Z,5.65
2018-12-17T07:36:32.706Z,5.62
2018-12-17T07:39:08.156Z,5.50
2018-12-17T07:41:39.894Z,5.43
2018-12-17T07:44:10.691Z,5.49
2018-12-17T07:46:41.317Z,5.44
2018-12-17T07:49:11.988Z,5.52
2018-12-17T07:51:42.645Z,5.45
2018-12-17T07:54:13.567Z,5.42
2018-12-17T07:56:44.336Z,5.50
2018-12-17T07:59:15.024Z,5.51
2018-12-17T08:01:45.705Z,5.59
2018-12-17T08:04:16.921Z,5.65
2018-12-17T08:06:47.878Z,5.65
2018-12-17T08:09:18.660Z,5.79
2018-12-17T08:11:49.354Z,5.81
2018-12-17T08:14:20.103Z,5.61
2018-12-17T08:16:52.014Z,5.88
2018-12-17T08:19:22.675Z,5.95
2018-12-17T08:21:53.344Z,5.95
2018-12-17T08:24:24.470Z,6.11
2018-12-17T08:27:09.640Z,6.13
2018-12-17T08:29:40.357Z,6.10
2018-12-17T08:32:11.378Z,6.09
2018-12-17T08:34:42.017Z,6.06
2018-12-17T08:37:12.686Z,6.19
2018-12-17T08:39:43.428Z,6.15
2018-12-17T08:42:14.121Z,6.09
2018-12-17T08:44:44.820Z,6.21
2018-12-17T08:47:15.526Z,6.20
2018-12-17T08:49:46.143Z,6.28
2018-12-17T08:52:17.866Z,6.32
2018-12-17T08:54:48.805Z,6.31
2018-12-17T08:57:19.482Z,6.32
2018-12-17T08:59:50.094Z,6.51
2018-12-17T09:02:20.816Z,6.67
2018-12-17T09:04:52.134Z,6.66
2018-12-17T09:07:22.780Z,6.72
2018-12-17T09:09:53.462Z,6.99
2018-12-17T09:12:24.071Z,7.19
2018-12-17T09:14:54.775Z,7.25
2018-12-17T09:17:25.508Z,7.43
2018-12-17T09:19:56.294Z,7.44
2018-12-17T09:22:26.953Z,7.42
2018-12-17T09:24:57.685Z,7.50
2018-12-17T09:27:28.371Z,7.62
2018-12-17T09:29:58.976Z,7.72
2018-12-17T09:32:30.254Z,7.88
2018-12-17T09:35:00.912Z,8.27
2018-12-17T09:37:34.718Z,8.64
2018-12-17T09:40:09.255Z,8.95
2018-12-17T09:42:39.952Z,8.63
2018-12-17T09:45:10.719Z,8.62
2018-12-17T09:47:41.402Z,9.01
2018-12-17T09:50:12.172Z,9.72
2018-12-17T09:52:42.760Z,10.01
2018-12-17T09:55:13.643Z,9.83
2018-12-17T09:57:44.305Z,9.73
2018-12-17T10:00:15.548Z,10.22
2018-12-17T10:02:46.916Z,10.61
2018-12-17T10:05:17.552Z,10.87
2018-12-17T10:07:48.247Z,10.45
2018-12-17T10:10:18.843Z,10.20
2018-12-17T10:12:49.541Z,10.28
2018-12-17T10:15:20.773Z,10.42
2018-12-17T10:17:51.507Z,10.11
2018-12-17T10:20:22.263Z,10.39
2018-12-17T10:22:53.089Z,10.62
2018-12-17T10:25:23.879Z,11.39
2018-12-17T10:27:54.599Z,11.24
2018-12-17T10:30:32.204Z,11.34
2018-12-17T10:32:57.903Z,11.38
2018-12-17T10:35:29.355Z,11.68
2018-12-17T10:38:00.067Z,11.43
2018-12-17T10:40:36.088Z,11.40
2018-12-17T10:43:12.992Z,11.64
2018-12-17T10:45:43.975Z,11.90
2018-12-17T10:48:16.221Z,12.64
2018-12-17T10:50:47.031Z,12.75
2018-12-17T10:53:17.665Z,13.66
2018-12-17T10:55:48.366Z,13.41
2018-12-17T10:58:19.750Z,13.45
2018-12-17T11:00:56.071Z,13.54
2018-12-17T11:03:41.334Z,13.46
2018-12-17T11:06:17.183Z,13.31
2018-12-17T11:08:49.950Z,12.83
2018-12-17T11:11:20.838Z,13.18
2018-12-17T11:13:52.183Z,13.32
2018-12-17T11:16:22.948Z,13.78
2018-12-17T11:18:54.140Z,13.94
2018-12-17T11:21:25.034Z,14.53
2018-12-17T11:23:56.823Z,14.98
2018-12-17T11:26:27.542Z,14.98
2018-12-17T11:28:59.255Z,15.09
2018-12-17T11:31:31.616Z,14.65
2018-12-17T11:34:06.286Z,14.51
2018-12-17T11:36:36.976Z,15.14
2018-12-17T11:39:10.457Z,15.68
2018-12-17T11:41:42.363Z,15.42
2018-12-17T11:44:16.525Z,16.09
2018-12-17T11:46:48.728Z,16.20
2018-12-17T11:49:19.491Z,15.34
2018-12-17T11:51:50.126Z,15.88
2018-12-17T11:54:20.834Z,16.12
2018-12-17T11:59:06.382Z,16.17
2018-12-17T12:01:39.402Z,15.53
2018-12-17T12:04:11.204Z,15.28
2018-12-17T12:06:42.306Z,16.64
2018-12-17T12:09:15.110Z,17.36
2018-12-17T12:11:45.769Z,17.50
2018-12-17T12:14:16.526Z,18.67
2018-12-17T12:16:47.280Z,18.05
2018-12-17T12:19:17.927Z,17.90
2018-12-17T12:21:48.674Z,17.69
2018-12-17T12:24:19.370Z,17.03
2018-12-17T12:26:50.435Z,16.47
2018-12-17T12:29:21.186Z,16.39
2018-12-17T12:31:51.986Z,16.47
2018-12-17T12:34:22.879Z,16.57
2018-12-17T12:36:53.544Z,16.94
2018-12-17T12:39:24.560Z,16.87
2018-12-17T12:41:55.605Z,16.04
2018-12-17T12:44:26.314Z,15.78
2018-12-17T12:46:57.029Z,15.31
2018-12-17T12:49:27.586Z,14.90
2018-12-17T12:51:58.477Z,15.13
2018-12-17T12:54:29.135Z,15.46
2018-12-17T12:57:00.745Z,15.44
2018-12-17T12:59:31.705Z,15.23
2018-12-17T13:02:04.691Z,15.52
2018-12-17T13:04:36.288Z,14.78
2018-12-17T13:07:07.205Z,14.06
2018-12-17T13:09:37.925Z,14.58
2018-12-17T13:12:08.569Z,15.32
2018-12-17T13:14:39.858Z,16.22
2018-12-17T13:17:17.562Z,15.92
2018-12-17T13:19:48.176Z,15.48
2018-12-17T13:22:19.954Z,15.81
2018-12-17T13:24:52.766Z,15.62
2018-12-17T13:27:23.966Z,15.67
2018-12-17T13:29:54.636Z,15.51
2018-12-17T13:32:25.199Z,14.95
2018-12-17T13:34:55.809Z,14.23
2018-12-17T13:37:26.390Z,14.45
2018-12-17T13:39:56.975Z,13.99
2018-12-17T13:42:33.922Z,13.91
2018-12-17T13:45:08.263Z,13.85
2018-12-17T13:47:44.698Z,13.77
2018-12-17T13:53:37.241Z,14.00
2018-12-17T13:56:08.099Z,13.92
2018-12-17T13:58:38.830Z,13.86
2018-12-17T14:01:09.477Z,13.85
2018-12-17T14:03:41.265Z,13.63
2018-12-17T14:06:19.983Z,13.75
2018-12-17T14:08:51.172Z,13.72
2018-12-17T14:11:24.064Z,13.43
2018-12-17T14:13:55.383Z,13.64
2018-12-17T14:16:31.886Z,13.72
2018-12-17T14:19:17.478Z,13.54
2018-12-17T14:21:53.490Z,13.66
2018-12-17T14:24:25.048Z,13.51
2018-12-17T14:26:55.791Z,13.61
2018-12-17T14:29:26.447Z,13.60
2018-12-17T14:31:57.227Z,13.58
2018-12-17T14:34:28.131Z,13.53
2018-12-17T14:36:58.958Z,13.67
2018-12-17T14:39:29.679Z,13.79
2018-12-17T14:42:00.929Z,13.64
2018-12-17T14:44:35.124Z,13.90
2018-12-17T14:47:08.388Z,13.87
2018-12-17T14:49:39.014Z,13.82
2018-12-17T14:52:09.863Z,13.85
2018-12-17T14:54:40.486Z,13.85
2018-12-17T14:57:11.169Z,13.57
2018-12-17T14:59:41.903Z,13.73
2018-12-17T15:02:14.657Z,13.70
2018-12-17T15:04:45.463Z,13.80
2018-12-17T15:07:16.166Z,13.66
2018-12-17T15:09:47.416Z,13.53
2018-12-17T15:12:19.253Z,13.44
2018-12-17T15:14:49.845Z,13.42
2018-12-17T15:17:20.560Z,13.57
2018-12-17T15:19:51.670Z,13.63
2018-12-17T15:22:22.419Z,13.64
2018-12-17T15:24:53.193Z,13.57
2018-12-17T15:27:23.869Z,13.68
2018-12-17T15:29:54.644Z,13.80
2018-12-17T15:32:25.380Z,13.70
2018-12-17T15:34:56.113Z,13.46
2018-12-17T15:37:27.871Z,13.47
2018-12-17T15:39:59.100Z,13.36
2018-12-17T15:42:29.849Z,13.50
2018-12-17T15:45:00.586Z,13.47
2018-12-17T15:47:31.687Z,13.34
2018-12-17T15:50:06.247Z,13.45
2018-12-17T15:52:36.938Z,13.39
2018-12-17T15:55:08.702Z,13.12
2018-12-17T15:57:39.382Z,13.08
2018-12-17T16:00:13.207Z,12.94
2018-12-17T16:02:44.066Z,12.85
2018-12-17T16:05:14.726Z,12.64
2018-12-17T16:07:45.770Z,12.64
2018-12-17T16:10:17.518Z,12.34
2018-12-17T16:12:48.332Z,12.25
2018-12-17T16:17:55.059Z,11.86
2018-12-17T16:20:25.745Z,11.78
2018-12-17T16:22:56.433Z,11.67
2018-12-17T16:25:27.172Z,11.58
2018-12-17T16:27:57.847Z,11.52
2018-12-17T16:30:28.751Z,11.47
2018-12-17T16:32:59.472Z,11.44
2018-12-17T16:35:30.461Z,11.36
2018-12-17T16:38:01.156Z,11.21
2018-12-17T16:40:35.305Z,11.11
2018-12-17T16:43:06.529Z,11.05
2018-12-17T16:45:37.287Z,10.95
2018-12-17T16:48:09.066Z,10.88
2018-12-17T16:50:40.099Z,10.81
2018-12-17T16:53:11.177Z,10.80
2018-12-17T16:55:41.790Z,10.64
2018-12-17T16:58:12.499Z,10.53
2018-12-17T17:00:45.291Z,10.49
2018-12-17T17:03:15.979Z,10.44
2018-12-17T17:05:46.676Z,10.28
2018-12-17T17:08:18.309Z,10.07
2018-12-17T17:10:48.998Z,9.97
2018-12-17T17:13:19.716Z,9.91
2018-12-17T17:15:50.484Z,9.80
2018-12-17T17:18:21.128Z,9.69
2018-12-17T17:20:51.847Z,9.69
2018-12-17T17:23:23.950Z,9.62
2018-12-17T17:25:54.695Z,9.45
2018-12-17T17:28:25.341Z,9.36
2018-12-17T17:30:57.076Z,9.32
2018-12-17T17:33:27.809Z,9.30
2018-12-17T17:35:58.555Z,9.29
2018-12-17T17:38:29.223Z,9.17
2018-12-17T17:41:00.221Z,9.14
2018-12-17T17:43:34.187Z,9.13
2018-12-17T17:46:08.249Z,9.05
2018-12-17T17:48:38.915Z,8.87
2018-12-17T17:51:09.716Z,8.81
2018-12-17T17:53:40.773Z,8.79
2018-12-17T17:56:11.437Z,8.80
2018-12-17T17:58:42.242Z,8.80
2018-12-17T18:01:12.993Z,8.72
2018-12-17T18:03:43.694Z,8.69
2018-12-17T18:06:16.424Z,8.67
2018-12-17T18:08:47.179Z,8.63
2018-12-17T18:11:18.103Z,8.59
2018-12-17T18:13:48.733Z,8.55
2018-12-17T18:16:19.564Z,8.50
2018-12-17T18:18:50.212Z,8.60
2018-12-17T18:21:20.820Z,8.49
2018-12-17T18:23:54.821Z,8.43
2018-12-17T18:26:31.229Z,8.38
2018-12-17T18:29:09.684Z,8.37
2018-12-17T18:34:31.478Z,8.21
2018-12-17T18:37:07.337Z,8.17
2018-12-17T18:39:41.549Z,8.19
2018-12-17T18:42:15.588Z,8.23
2018-12-17T18:44:47.999Z,8.37
2018-12-17T18:47:25.837Z,8.15
2018-12-17T18:50:06.314Z,8.13
2018-12-17T18:52:42.342Z,7.98
2018-12-17T18:55:20.626Z,7.96
2018-12-17T18:57:57.575Z,7.96
2018-12-17T19:00:33.095Z,7.95
2018-12-17T19:03:11.232Z,7.91
2018-12-17T19:05:49.270Z,7.92
2018-12-17T19:08:24.718Z,7.92
2018-12-17T19:11:04.414Z,7.96
2018-12-17T19:13:43.032Z,8.03
2018-12-17T19:16:17.714Z,8.04
2018-12-17T19:18:50.929Z,7.97
2018-12-17T19:21:47.084Z,7.94
2018-12-17T19:24:25.583Z,7.89
2018-12-17T19:26:56.712Z,7.88
2018-12-17T19:29:29.062Z,7.93
2018-12-17T19:32:00.290Z,7.97
2018-12-17T19:34:39.829Z,8.03
2018-12-17T19:37:11.547Z,8.02
2018-12-17T19:39:43.084Z,7.98
2018-12-17T19:42:14.933Z,7.97
2018-12-17T19:44:49.987Z,7.90
2018-12-17T19:47:26.866Z,7.77
2018-12-17T19:50:02.202Z,7.77
2018-12-17T19:52:35.366Z,7.73
2018-12-17T19:55:07.769Z,7.65
2018-12-17T19:57:41.809Z,7.58
2018-12-17T20:00:17.436Z,7.56
2018-12-17T20:02:53.156Z,7.57
2018-12-17T20:05:29.053Z,7.59
2018-12-17T20:08:12.149Z,7.59
2018-12-17T20:10:53.698Z,7.58
2018-12-17T20:13:27.052Z,7.59
2018-12-17T20:16:06.466Z,7.57
2018-12-17T20:18:43.232Z,7.52
2018-12-17T20:21:16.214Z,7.50
2018-12-17T20:23:48.900Z,7.46
2018-12-17T20:26:22.547Z,7.46
2018-12-17T20:28:55.086Z,7.47
2018-12-17T20:31:27.950Z,7.39
2018-12-17T20:34:06.898Z,7.36
2018-12-17T20:36:39.674Z,7.05
2018-12-17T20:39:16.201Z,7.30
2018-12-17T20:41:48.960Z,7.37
2018-12-17T20:44:27.853Z,7.32
2018-12-17T20:47:00.547Z,7.39
2018-12-17T20:49:37.084Z,7.34
2018-12-17T20:52:14.076Z,7.35
2018-12-17T20:54:48.083Z,7.29
2018-12-17T20:57:20.699Z,7.23
2018-12-17T20:59:51.889Z,7.18
2018-12-17T21:02:24.172Z,7.14
2018-12-17T21:04:55.837Z,7.10
2018-12-17T21:07:29.095Z,7.06
2018-12-17T21:09:59.943Z,7.13
2018-12-17T21:12:36.410Z,7.12
2018-12-17T21:15:08.477Z,7.09
2018-12-17T21:17:40.064Z,7.14
2018-12-17T21:20:14.873Z,7.17
2018-12-17T21:22:55.861Z,7.25
2018-12-17T21:25:29.788Z,7.43
2018-12-17T21:28:06.727Z,7.53
2018-12-17T21:30:39.012Z,7.49
2018-12-17T21:33:12.564Z,7.54
2018-12-17T21:35:46.237Z,7.48
2018-12-17T21:38:24.038Z,7.42
2018-12-17T21:40:57.615Z,7.37
2018-12-17T21:43:35.902Z,7.22
2018-12-17T21:46:09.093Z,7.16
2018-12-17T21:48:46.437Z,7.17
2018-12-17T21:51:21.018Z,7.16
2018-12-17T21:53:55.516Z,7.18
2018-12-17T21:56:30.553Z,6.99
2018-12-17T21:59:06.390Z,7.15
2018-12-17T22:01:38.984Z,7.14
2018-12-17T22:04:10.282Z,7.09
2018-12-17T22:06:41.578Z,7.13
2018-12-17T22:09:12.712Z,7.15
2018-12-17T22:11:44.558Z,7.15
2018-12-17T22:14:22.185Z,7.06
2018-12-17T22:16:53.424Z,7.05
2018-12-17T22:19:24.444Z,7.02
2018-12-17T22:21:56.180Z,7.00
2018-12-17T22:24:30.725Z,6.98
2018-12-17T22:27:03.416Z,6.85
2018-12-17T22:29:34.472Z,6.74
2018-12-17T22:32:05.576Z,6.69
2018-12-17T22:34:37.991Z,6.64
2018-12-17T22:37:08.722Z,6.45
2018-12-17T22:39:39.833Z,6.43
2018-12-17T22:42:11.297Z,6.35
2018-12-17T22:44:43.157Z,6.35
2018-12-17T22:47:13.883Z,6.37
2018-12-17T22:49:46.627Z,6.35
2018-12-17T22:52:18.241Z,6.35
2018-12-17T22:54:49.188Z,6.28
2018-12-17T22:57:20.434Z,6.20
2018-12-17T22:59:52.094Z,6.14
2018-12-17T23:02:23.949Z,6.15
2018-12-17T23:05:01.457Z,6.01
2018-12-17T23:07:37.953Z,6.01
2018-12-17T23:10:20.784Z,5.89
2018-12-17T23:13:04.605Z,5.83
2018-12-17T23:15:46.702Z,5.82
2018-12-17T23:18:17.437Z,5.73
2018-12-17T23:20:50.448Z,5.65
2018-12-17T23:23:28.591Z,5.66
2018-12-17T23:26:04.365Z,5.73
2018-12-17T23:28:35.422Z,5.71
2018-12-17T23:31:06.820Z,5.67
2018-12-17T23:33:39.747Z,5.67
2018-12-17T23:36:11.256Z,5.71
2018-12-17T23:38:42.426Z,5.77
2018-12-17T23:41:16.340Z,5.76
2018-12-17T23:43:50.556Z,5.82
2018-12-17T23:46:23.784Z,5.83
2018-12-17T23:48:54.913Z,5.90
2018-12-17T23:51:28.273Z,5.91
2018-12-17T23:53:59.805Z,5.90
2018-12-17T23:56:30.959Z,5.85
2018-12-17T23:59:03.531Z,5.83
